Logo AVAMET
Benvolgut visitant, si us plau, ingressa Recuperar contrasenya
AVAMET paisatges

Llutxent Coop. del Camp

Dades diàries. Acumulats / Últims 30 dies disponibles

Data Temperatura (°C) Humitat rel. (%) Pressió rel. (hPa) Vent (km/h) Precipitació
Mínima Mitjana Màxima Amplitud
tèrmica
Mínima Mitjana Màxima Mínima Mitjana Màxima Predom. Mitjana Ràfega
màxima
Total
(mm)
Índex-n
Mínima Mitjana Màxima Mínima Mitjana Màxima n
0 a 1
P0 max
mm 5'
Dades mensuals acumulades fins l'últim dia disponible
07/2020 20,1 21,0 21,6 26,0 26,8 31,6 39,6 19,5 15 70 97 1.006 1.013 1.019   6,2 43,5 0,0
Dades anuals acumulades fins l'últim dia disponible
2020 1,9 11,4 21,6 15,9 7,9 21,2 39,6 37,7 15 73 99 999 1.017 1.033   5,5 212,4 599,4
Últims 30 dies disponibles
09-07-2020 21,3     25,1     29,0 7,7 46 72 94 1.011 1.013 1.015 E 9,0 43,5 0,0
08-07-2020 21,3     24,8     29,7 8,4 49 76 94 1.012 1.014 1.015 E 6,9 38,6 0,0
07-07-2020 21,6     26,9     32,6 11,0 34 62 88 1.010 1.012 1.013 WNW 4,8 32,2 0,0
06-07-2020 20,1     27,3     33,3 13,2 29 56 91 1.011 1.013 1.015 ESE 5,6 33,8 0,0
05-07-2020 20,2     26,1     31,9 11,7 36 69 92 1.013 1.017 1.019 E 6,0 30,6 0,0
04-07-2020 21,2     25,6     30,5 9,3 57 75 92 1.015 1.017 1.019 E 5,5 29,0 0,0
03-07-2020 21,4     24,3     26,8 5,4 68 80 92 1.013 1.015 1.017 E 8,9 37,0 0,0
02-07-2020 20,3     25,4     31,4 11,1 53 78 97 1.009 1.010 1.012 WNW 6,3 33,8 0,0
01-07-2020 21,4     28,8     39,6 18,2 15 63 93 1.006 1.008 1.010 WNW 3,1 30,6 0,0
30-06-2020 21,4     24,8     28,8 7,4 59 78 94 1.008 1.011 1.013 S 5,4 33,8 0,0
29-06-2020 19,6     25,3     31,9 12,3 44 76 95 1.010 1.013 1.015 WNW 5,3 29,0 0,0
28-06-2020 19,8     24,8     30,4 10,6 58 77 96 1.012 1.014 1.015 WNW 4,8 30,6 0,0
27-06-2020 18,8     24,9     32,1 13,3 30 68 93 1.011 1.012 1.014 WNW 5,6 32,2 0,0
26-06-2020 18,5     23,6     28,2 9,7 45 69 93 1.009 1.012 1.014 E 6,1 38,6 0,0
25-06-2020 18,7     23,9     28,7 10,0 40 67 96 1.011 1.013 1.016 ESE 6,9 40,2 0,0
24-06-2020 18,7     22,9     28,8 10,1 49 75 93 1.013 1.014 1.016 SE 4,8 32,2 0,0
23-06-2020 17,6     24,0     29,3 11,7 45 66 92 1.012 1.015 1.017 E 6,6 33,8 0,0
22-06-2020 18,4     25,3     31,8 13,4 31 66 96 1.015 1.018 1.019 WNW 5,3 29,0 0,0
21-06-2020 17,6     23,9     30,6 13,0 45 75 94 1.016 1.018 1.019 SE 4,7 29,0 0,0
20-06-2020 17,9     24,2     30,9 13,0 35 71 97 1.015 1.017 1.019 W 4,2 25,7 0,0
19-06-2020 18,3     21,6     26,3 8,0 61 82 95 1.014 1.015 1.018 E 5,5 32,2 0,0
18-06-2020 17,1     20,3     24,1 7,0 68 85 98 1.010 1.012 1.014 E 5,6 30,6 0,0
17-06-2020 17,6     20,5     25,4 7,8 55 83 95 1.011 1.013 1.014 ESE 5,8 43,5 2,2
16-06-2020 17,4     21,2     28,6 11,2 38 77 94 1.012 1.014 1.016 WNW 6,1 43,5 0,0
15-06-2020 17,7     23,4     29,7 12,0 27 50 92 1.014 1.016 1.018 WNW 6,0 35,4 0,0
14-06-2020 16,6     22,7     27,9 11,3 31 47 63 1.013 1.015 1.016 WNW 5,0 32,2 0,0
13-06-2020 14,4     21,2     27,3 12,9 26 43 64 1.007 1.011 1.015 WNW 7,6 35,4 0,0
12-06-2020 17,4     22,0     27,1 9,7 24 46 69 1.001 1.003 1.007 WNW 11,9 38,6 0,0
11-06-2020 16,5     23,6     31,0 14,5 22 59 96 999 1.005 1.011 WSW 6,3 38,6 0,0
10-06-2020 13,8     19,3     23,9 10,1 61 77 93 1.009 1.013 1.015 ESE 5,5 35,4 0,0
Últims 13 mesos disponibles
06/2020 12,8 17,2 21,4 22,6 20,4 28,4 32,1 19,3 43 68 85 1.003 1.012 1.018 WNW 5,9 49,9 21,4
05/2020 11,2 14,3 17,9 19,7 16,1 25,3 31,3 20,1 52 70 95 1.003 1.014 1.024 WNW 5,4 212,4 75,2
04/2020 6,7 10,8 15,0 14,2 14,1 18,7 24,3 17,6 55 80 97 1.004 1.014 1.023 E 5,2 48,3 56,6
03/2020 3,7 8,8 13,8 12,6 8,4 17,1 27,2 23,5 46 74 97 1.005 1.015 1.024 WNW 7,3 88,5 101,8
02/2020 3,6 8,9 13,3 13,7 13,0 20,0 25,1 21,5 40 70 93 1.012 1.024 1.031 WNW 4,1 43,5 4,6
01/2020 1,9 5,7 11,1 9,5 7,9 14,6 19,4 17,5 50 79 98 1.013 1.023 1.031 WNW 4,7 339,8
12/2019 1,9 8,7 17,4 12,2 10,8 16,7 23,5 21,6 46 73 97 1.001 1.017 1.031 WNW 6,4 82,1 152,8
11/2019 3,6 9,2 18,2 13,3 13,4 17,5 25,0 21,4 51 64 81 998 1.009 1.017 WNW 8,0 61,2 11,8
10/2019 8,7 14,5 18,1 19,0 13,7 24,2 32,1 23,4 43 70 92 1.007 1.014 1.020 O 3,7 37,0 25,6
09/2019 12,4 18,2 21,3 22,4 20,5 27,1 33,4 21,0 45 76 92 1.008 1.015 1.022 WNW 5,4 77,2 163,6
08/2019 16,1 20,6 25,3 25,8 26,2 31,5 40,4 24,3 33 69 86 1.008 1.013 1.017 E 5,8 54,7 29,4
07/2019 18,8 20,8 24,9 26,3 27,2 32,0 37,7 18,9 39 64 78 1.004 1.011 1.018 E 6,8 59,5 0,8
06/2019 11,1 16,1 20,1 22,2 20,4 28,2 35,7 24,6 38 62 79 1.006 1.013 1.019 WNW 5,8 56,3 0,0
Tots els anys disponibles
2019 -0,4 12,5 25,3 17,3 9,9 22,6 40,4 40,8 30 66 98 994 1.015 1.032 WNW 5,9 82,1 613,0
2018 0,5 12,6 23,6 17,1 5,7 22,2 37,1 36,6 WNW 5,7 88,5 692,0
2017 -1,4 12,6 23,3 17,4 6,5 22,8 38,3 39,7 WNW 5,5 101,4 415,2
Temperatura (°C)
Humitat relativa (%)
Velocitat del vent i ràfega màxima (km/h)
Direcció del vent (°)
Pressió (hPa)
Precipitació (mm)
Nota sobre les dades: s'avisa a l'usuari de la provisionalitat i no oficialitat d'aquestes dades
Logo AVAMET blanc
Web allotjada a Sollutia
Llicència de Creative CommonsLa web d'AVAMET i els seus continguts estan subjectes a una llicència de
Reconeixement - No Comercial - Compartir igual
Últimes estacions: Vilamarxant - La Pedrera (Soci), Càlig (Ajuntament Soci), Quesa - Hotel La Rocha (Soci), Agres - Les Eres (Soci), la Vilavella - Ptda Forns (Soci), Miramar - Platja (Inforatge), San Fulgencio - Centre & San Fulgencio - Urb. La Marina (MeteOrihuela), Ontinyent - els Gínjols (Soci), Orba (Aj. Soci) - - -